Warning: Javascript must be enabled to use all the features on this page!


Page Loading - Please Wait...

* We've detected you're using a mobile device. Find our Next Generation Station Page here.
Click to hideNews Bulletins

Peak Streamflow for the Nation

USGS 02171500 SANTEE RIVER NEAR PINEVILLE, SC

Berkeley County, South Carolina
Hydrologic Unit Code 03050112
Latitude  33°27'13.6", Longitude  80°08'28.9" NAD83
Drainage area 14,700  square miles
Gage datum 21.96 feet above NAVD88
Output formats
Table
Graph
Tab-separated file
peakfq (watstore) format
Reselect output format
Water
Year
Date Gage
Height
(feet)
Stream-
flow
(cfs)
1943 1943-03-27 23.23 32,3006
1944 1944-03-24 29.52 122,0006
1945 1945-09-23 31.10 155,0006
1946 1946-01-09 25.50 55,8006
1947 1947-02-08 30.04 132,0006
1948 1948-02-17 26.35 73,8006
1949 1948-12-04 28.56 114,0006
1950 1950-08-18 3.752,5 7822,6
1951 1951-06-24 2.342 6176
1952 1952-03-11 27.77 89,9006
1953 1953-03-25 7.15 2,8306
1954 1954-04-17 3.53 1,1406
1955 1954-10-15 2.34 6536
1956 1956-04-07 2.51 7446
1957 1957-04-06 3.12 9896
1958 1957-11-30 25.85 59,7006
1959 1959-07-27 12.36 6,8406
1960 1960-02-18 26.57 69,3006
1961 1961-03-03 24.68 46,5006
1962 1962-03-17 24.03 36,1006
1963 1963-03-18 25.43 52,2006
1964 1964-04-13 27.07 77,2006
1965 1964-10-22 27.41 88,1006
1966 1966-03-09 24.94 51,4006
1967 1967-08-26 25.42 52,4006
1968 1968-01-17 22.77 23,0006
1969 1969-04-20 24.87 45,5006
1970 1970-03-24 24.03 36,4006
1971 1971-03-08 25.51 53,6006
1972 1972-01-21 21.64 19,8006
1973 1973-04-07 25.24 50,1006
1974 1974-02-16 21.94 21,3006
1975 1975-03-19 27.91 91,7006
1976 1976-05-18 6.49 2,3406
1977 1976-10-14 26.01 60,2006
1978 1978-01-31 24.74 43,9006
1979 1979-03-02 27.74 85,0006
1980 1980-03-30 26.58 67,9006
1981 1981-03-16 7.01 2,6406
1982 1982-01-10 26.88 72,0006
1983 1983-04-16 24.73 32,3006
1984 1983-12-13 13.65 25,6006
1985 1985-02-12 9.55 3,9006
1986 1985-12-06 22.24 16,1006
1987 1987-03-06 27.29 87,0001,6
1988 1987-10-03 2.282 8501,6
1989 1989-04-06 6.332 2,2001,6
1990 1989-10-08 25.782 20,9001,6
1991 1990-10-18 27.26 51,5001,6
1992 1992-03-11 8.28 2,0001,6
1993 1993-01-13 26.69 55,0001,6
1994 1994-08-23   28,9001,6
1995 1995-01-20 26.29 49,2001,6
1996 1996-02-09   11,6001,6
1997 1997-03-06   9,4501,6
1998 1998-02-02   54,9001,6
1999 1998-10-23   1,1401,6
2000 2000-03-28   1,1701,6
2001 2001-04-01 7.53 1,5001,6
2002 2002-02-27   6971,6
2003 2003-03-25 27.44 88,8006
2004 2004-09-14 23.632 42,0006
2005 2005-04-02 22.66 39,9006
2006 2005-10-02 18.62 20,9006
2007 2007-03-06 21.212 21,7006
2008 2008-05-12 7.09 3,7006
2009 2009-04-06 10.44 4,3506
2010 2010-02-10 26.32 65,3006
2011 2011-04-05 6.44 2,7606
2012 2012-03-04 7.09 3,3806
2013 2013-07-12 23.79 32,4006
2014 2014-01-06 8.402 3,4906
2015 2015-04-28 10.192 4,8706
2016 2015-10-08   91,7002,6
2017 2016-10-08 8.68 4,9206
2018 2018-09-14 7.782 4,1506
2019 2018-12-28 24.93 45,6006
2020 2020-02-12 28.72 92,1006
2021 2021-02-23 23.49 27,3006
2022 2022-04-10 20.46 12,9006
2023 2023-05-03 20.18 13,7006
?
  Peak Gage-Height Qualification Codes.
?
  Peak Streamflow Qualification Codes.